< Typhoon 199713 1997 Season Typhoon 199715 >
Typhoon 199714 (YULE)
General InformationTrack Information on Google MapsDetailed Wind InformationList of All Images || Disaster Info.ResourceGoogle EarthGE AnimationAtom FeedGeoJSON
Detalied Best Track (Time Zone = UTC)
Year Month Day Hour Lat. Long. Pressure (hPa) Wind (kt) Class Image Chart
1997 8 16 06 8.8 163.7 1002 0 2 Image Chart
1997 8 16 12 9.3 164.1 1002 0 2 Image Chart
1997 8 16 18 10.1 164.7 1002 0 2 Image Chart
1997 8 17 00 11.0 165.2 1002 0 2 Image Chart
1997 8 17 06 11.8 165.6 1002 0 2 Image Chart
1997 8 17 12 12.6 166.0 1002 0 2 Image Chart
1997 8 17 18 13.4 166.2 1002 0 2 Image Chart
1997 8 18 00 14.4 166.3 1002 0 2 Image Chart
1997 8 18 06 15.1 166.3 1002 0 2 Image Chart
1997 8 18 12 16.1 165.7 1002 0 2 Image Chart
1997 8 18 18 16.3 165.1 1002 0 2 Image Chart
1997 8 19 00 15.9 165.4 1002 0 2 Image Chart
1997 8 19 06 15.5 166.7 1000 0 2 Image Chart
1997 8 19 12 16.0 168.6 998 35 3 Image Chart
1997 8 19 18 18.1 169.5 994 40 3 Image Chart
1997 8 20 00 19.9 167.7 990 45 3 Image Chart
1997 8 20 06 19.5 167.4 990 45 3 Image Chart
1997 8 20 12 20.2 168.3 985 50 4 Image Chart
1997 8 20 18 21.0 168.1 985 50 4 Image Chart
1997 8 21 00 22.0 168.1 980 55 4 Image Chart
1997 8 21 06 23.1 168.3 980 55 4 Image Chart
1997 8 21 12 24.1 168.6 980 55 4 Image Chart
1997 8 21 18 25.5 169.1 980 55 4 Image Chart
1997 8 22 00 27.3 170.1 980 55 4 Image Chart
1997 8 22 06 29.3 171.2 980 55 4 Image Chart
1997 8 22 12 31.3 172.4 985 50 4 Image Chart
1997 8 22 18 34.8 173.4 990 45 3 Image Chart
1997 8 23 00 39.1 172.7 992 45 3 Image Chart
1997 8 23 06 41.5 169.5 984 0 6 Image Chart
1997 8 23 12 43.4 167.0 980 0 6 Image Chart
1997 8 23 18 45.3 165.8 980 0 6 Image Chart
1997 8 24 00 47.1 165.1 980 0 6 Image Chart
1997 8 24 06 48.4 164.2 980 0 6 Image Chart
1997 8 24 12 49.5 163.9 982 0 6 Image Chart
1997 8 24 18 49.9 162.6 984 0 6 Image Chart
1997 8 25 00 50.2 163.0 988 0 6 Image Chart
1997 8 25 06 50.5 164.7 992 0 6 Image Chart
1997 8 25 12 50.6 166.1 994 0 6 Image Chart
1997 8 25 18 51.1 167.6 996 0 6 Image Chart
1997 8 26 00 51.4 168.8 996 0 6 Image Chart
1997 8 26 06 50.8 169.5 996 0 6 Image Chart
1997 8 26 12 50.5 169.6 998 0 6 Image Chart
1997 8 26 18 50.0 170.0 998 0 6 Image Chart
1997 8 27 00 49.4 169.4 998 0 6 Image Chart
1997 8 27 06 48.8 169.1 1000 0 6 Image Chart
1997 8 27 12 48.2 170.1 1002 0 6 Image Chart
1997 8 27 18 47.5 171.5 1004 0 6 Image Chart
1997 8 28 00 47.4 173.3 1004 0 6 Image Chart
1997 8 28 06 47.9 176.2 1004 0 6 Image Chart
1997 8 28 12 49.5 179.1 1004 0 6 Image Chart
1997 8 28 18 51.0 181.7 1002 0 6 Image Chart
Japan Meteorological Agency Best Track Data | Correction Date : 1998-01-19
< Typhoon 199713 1997 Season Typhoon 199715 >

Help